Armstrong Airport
CYYW : now visible

Airfield :











YOU CAN JOIN US ON...

 
LOGIN :

Register | Disclaimer

   EN    FR    IT 

 









Legend :    VFR   Marginal VFR   IFR   Intensive IFR   Very Intensive IFR
Visi :
Ceiling :
>= 8 km
>= 3000ft
5 to 8 km
1000 to 3000 ft
1500m to 5 km
500 to 1000 ft
800 to 1500m
200 to 500 ft
< 800m
< 200 ft
Symbols :   Thunderstorms  Fog  Heavy snow  Heavy precipitations  Wind > 20 kt






- Airport Elevation : 1058 ft
- IATA code : YYW


CYYW - Armstrong

CURRENT METAR :
  • 281736Z AUTO 36006KT 320V040 9SM -SN BKN022 OVC033 M02/M05 A2976 RMK SLP099

EXPIRED METARs :
  • 281730Z AUTO 36005KT 300V030 9SM SCT022 BKN027 OVC033 M02/M05 A2975 RMK SLP097
  • 281704Z AUTO 35006KT 300V050 9SM -SN OVC022 M02/M05 A2975 RMK SLP096
  • 281618Z AUTO 35006KT 300V040 9SM BKN014 OVC022 M02/M04 A2973 RMK SLP090
  • 281600Z AUTO 33006KT 9SM -SN SCT012 OVC022 M02/M04 A2972 RMK SLP086
  • 281548Z AUTO 36005KT 320V070 6SM -SN SCT012 OVC020 M02/M03 A2972 RMK SLP085
  • 281536Z AUTO 35005KT 310V030 5SM -SN BKN010 OVC020 M02/M03 A2972 RMK SLP085
  • 281500Z AUTO 33006KT 280V350 3SM -SN FEW010 SCT015 OVC020 M02/M03 A2970 RMK SLP079

TAF N/A
CZWG FIR / North America



MET'MAP, your aeronautical weather chart ! - Copyright ORBIFLY December 2007 - Disclaimer

ORBIFLY MET'MAP TEAM :

Programming & Development : Alexandra Zaïnal
Concept & original design : Baudouin d'Aumeries
Assistance for programming : Marc-Olivier Méhu
Technical & hardware support : Manuel Goepfert

Contact : metmap@orbifly.com




SOURCES & CREDITS :

   NOAA       Earth
Advisory